sensor_id;sensor_type;location;lat;lon;timestamp;P1;durP1;ratioP1;P2;durP2;ratioP2
22415;SDS011;12204;50.600;4.608;2023-05-19T00:04:03;12.57;;;5.20;;
22415;SDS011;12204;50.600;4.608;2023-05-19T00:09:08;10.95;;;5.00;;
22415;SDS011;12204;50.600;4.608;2023-05-19T00:14:13;12.13;;;5.07;;
22415;SDS011;12204;50.600;4.608;2023-05-19T00:19:19;11.20;;;4.70;;
22415;SDS011;12204;50.600;4.608;2023-05-19T00:24:25;10.80;;;4.90;;
22415;SDS011;12204;50.600;4.608;2023-05-19T00:29:28;10.18;;;4.72;;
22415;SDS011;12204;50.600;4.608;2023-05-19T00:34:33;8.88;;;4.30;;
22415;SDS011;12204;50.600;4.608;2023-05-19T00:39:37;11.15;;;4.95;;
22415;SDS011;12204;50.600;4.608;2023-05-19T00:44:41;11.77;;;4.57;;
22415;SDS011;12204;50.600;4.608;2023-05-19T00:49:45;10.02;;;4.32;;
22415;SDS011;12204;50.600;4.608;2023-05-19T00:54:49;10.32;;;3.90;;
22415;SDS011;12204;50.600;4.608;2023-05-19T00:59:53;9.32;;;3.97;;
22415;SDS011;12204;50.600;4.608;2023-05-19T01:04:59;7.57;;;3.78;;
22415;SDS011;12204;50.600;4.608;2023-05-19T01:10:04;9.43;;;3.88;;
22415;SDS011;12204;50.600;4.608;2023-05-19T01:15:08;9.55;;;3.83;;
22415;SDS011;12204;50.600;4.608;2023-05-19T01:20:17;8.35;;;3.80;;
22415;SDS011;12204;50.600;4.608;2023-05-19T01:31:15;7.88;;;3.25;;
22415;SDS011;12204;50.600;4.608;2023-05-19T01:36:21;7.80;;;3.40;;
22415;SDS011;12204;50.600;4.608;2023-05-19T01:41:28;6.97;;;3.45;;
22415;SDS011;12204;50.600;4.608;2023-05-19T01:46:40;7.40;;;3.38;;
22415;SDS011;12204;50.600;4.608;2023-05-19T01:51:48;9.33;;;3.37;;
22415;SDS011;12204;50.600;4.608;2023-05-19T01:56:54;6.68;;;3.00;;
22415;SDS011;12204;50.600;4.608;2023-05-19T02:02:15;7.90;;;3.63;;
22415;SDS011;12204;50.600;4.608;2023-05-19T02:07:36;7.63;;;3.00;;
22415;SDS011;12204;50.600;4.608;2023-05-19T02:12:47;7.47;;;3.17;;
22415;SDS011;12204;50.600;4.608;2023-05-19T02:17:56;5.65;;;2.72;;
22415;SDS011;12204;50.600;4.608;2023-05-19T02:23:05;7.78;;;2.80;;
22415;SDS011;12204;50.600;4.608;2023-05-19T02:28:08;8.05;;;3.10;;
22415;SDS011;12204;50.600;4.608;2023-05-19T02:33:13;5.95;;;2.58;;
22415;SDS011;12204;50.600;4.608;2023-05-19T02:38:17;5.43;;;2.60;;
22415;SDS011;12204;50.600;4.608;2023-05-19T02:43:21;7.55;;;2.47;;
22415;SDS011;12204;50.600;4.608;2023-05-19T02:48:26;6.65;;;2.60;;
22415;SDS011;12204;50.600;4.608;2023-05-19T02:53:30;8.38;;;2.72;;
22415;SDS011;12204;50.600;4.608;2023-05-19T02:58:34;5.25;;;2.50;;
22415;SDS011;12204;50.600;4.608;2023-05-19T03:03:39;5.65;;;2.40;;
22415;SDS011;12204;50.600;4.608;2023-05-19T03:08:42;6.47;;;2.50;;
22415;SDS011;12204;50.600;4.608;2023-05-19T03:13:46;5.80;;;2.60;;
22415;SDS011;12204;50.600;4.608;2023-05-19T03:18:51;5.18;;;2.40;;
22415;SDS011;12204;50.600;4.608;2023-05-19T03:23:56;5.30;;;2.10;;
22415;SDS011;12204;50.600;4.608;2023-05-19T03:28:59;5.85;;;2.30;;
22415;SDS011;12204;50.600;4.608;2023-05-19T03:34:06;5.35;;;2.30;;
22415;SDS011;12204;50.600;4.608;2023-05-19T03:39:10;4.70;;;2.15;;
22415;SDS011;12204;50.600;4.608;2023-05-19T03:44:14;4.95;;;1.92;;
22415;SDS011;12204;50.600;4.608;2023-05-19T03:49:19;8.52;;;2.25;;
22415;SDS011;12204;50.600;4.608;2023-05-19T03:55:01;5.30;;;1.88;;
22415;SDS011;12204;50.600;4.608;2023-05-19T04:00:05;4.38;;;1.85;;
22415;SDS011;12204;50.600;4.608;2023-05-19T04:05:14;4.43;;;1.80;;
22415;SDS011;12204;50.600;4.608;2023-05-19T04:10:18;5.22;;;1.88;;
22415;SDS011;12204;50.600;4.608;2023-05-19T04:15:21;4.30;;;1.90;;
22415;SDS011;12204;50.600;4.608;2023-05-19T04:20:30;5.90;;;1.70;;
22415;SDS011;12204;50.600;4.608;2023-05-19T04:25:33;4.07;;;1.70;;
22415;SDS011;12204;50.600;4.608;2023-05-19T04:30:37;4.22;;;1.90;;
22415;SDS011;12204;50.600;4.608;2023-05-19T04:35:44;4.78;;;1.70;;
22415;SDS011;12204;50.600;4.608;2023-05-19T04:40:49;3.92;;;1.60;;
22415;SDS011;12204;50.600;4.608;2023-05-19T04:45:54;4.22;;;1.70;;
22415;SDS011;12204;50.600;4.608;2023-05-19T04:51:00;3.65;;;1.58;;
22415;SDS011;12204;50.600;4.608;2023-05-19T04:56:04;3.75;;;1.63;;
22415;SDS011;12204;50.600;4.608;2023-05-19T05:01:08;4.47;;;1.70;;
22415;SDS011;12204;50.600;4.608;2023-05-19T05:06:15;5.05;;;1.80;;
22415;SDS011;12204;50.600;4.608;2023-05-19T05:11:23;3.75;;;1.70;;
22415;SDS011;12204;50.600;4.608;2023-05-19T05:16:29;5.18;;;1.70;;
22415;SDS011;12204;50.600;4.608;2023-05-19T05:21:36;6.38;;;1.65;;
22415;SDS011;12204;50.600;4.608;2023-05-19T05:26:42;5.57;;;1.70;;
22415;SDS011;12204;50.600;4.608;2023-05-19T05:31:47;4.35;;;1.67;;
22415;SDS011;12204;50.600;4.608;2023-05-19T05:36:52;4.55;;;1.60;;
22415;SDS011;12204;50.600;4.608;2023-05-19T05:41:56;3.78;;;1.50;;
22415;SDS011;12204;50.600;4.608;2023-05-19T05:47:01;3.97;;;1.55;;
22415;SDS011;12204;50.600;4.608;2023-05-19T05:52:08;4.43;;;1.80;;
22415;SDS011;12204;50.600;4.608;2023-05-19T05:57:19;3.75;;;1.60;;
22415;SDS011;12204;50.600;4.608;2023-05-19T06:02:23;3.17;;;1.40;;
22415;SDS011;12204;50.600;4.608;2023-05-19T06:07:31;3.23;;;1.60;;
22415;SDS011;12204;50.600;4.608;2023-05-19T06:12:35;3.22;;;1.40;;
22415;SDS011;12204;50.600;4.608;2023-05-19T06:17:41;4.47;;;1.65;;
22415;SDS011;12204;50.600;4.608;2023-05-19T06:22:47;4.05;;;1.40;;
22415;SDS011;12204;50.600;4.608;2023-05-19T06:27:53;2.50;;;1.30;;
22415;SDS011;12204;50.600;4.608;2023-05-19T06:32:57;3.88;;;1.60;;
22415;SDS011;12204;50.600;4.608;2023-05-19T06:38:03;3.53;;;1.48;;
22415;SDS011;12204;50.600;4.608;2023-05-19T06:43:06;3.67;;;1.30;;
22415;SDS011;12204;50.600;4.608;2023-05-19T06:48:27;3.28;;;1.38;;
22415;SDS011;12204;50.600;4.608;2023-05-19T06:53:33;10.55;;;3.35;;
22415;SDS011;12204;50.600;4.608;2023-05-19T06:58:41;8.77;;;2.80;;
22415;SDS011;12204;50.600;4.608;2023-05-19T07:03:45;9.25;;;2.40;;
22415;SDS011;12204;50.600;4.608;2023-05-19T07:08:50;7.68;;;2.40;;
22415;SDS011;12204;50.600;4.608;2023-05-19T07:13:55;21.67;;;2.67;;
22415;SDS011;12204;50.600;4.608;2023-05-19T07:19:01;11.82;;;2.15;;
22415;SDS011;12204;50.600;4.608;2023-05-19T07:24:07;11.32;;;2.70;;
22415;SDS011;12204;50.600;4.608;2023-05-19T07:29:11;8.02;;;2.58;;
22415;SDS011;12204;50.600;4.608;2023-05-19T07:34:14;9.32;;;2.80;;
22415;SDS011;12204;50.600;4.608;2023-05-19T07:39:19;8.75;;;2.40;;
22415;SDS011;12204;50.600;4.608;2023-05-19T07:44:23;10.43;;;2.25;;
22415;SDS011;12204;50.600;4.608;2023-05-19T07:49:27;10.00;;;2.38;;
22415;SDS011;12204;50.600;4.608;2023-05-19T07:54:32;9.20;;;2.10;;
22415;SDS011;12204;50.600;4.608;2023-05-19T07:59:35;10.32;;;2.20;;
22415;SDS011;12204;50.600;4.608;2023-05-19T08:04:39;9.05;;;2.58;;
22415;SDS011;12204;50.600;4.608;2023-05-19T08:09:44;9.57;;;2.30;;
22415;SDS011;12204;50.600;4.608;2023-05-19T08:14:47;5.57;;;1.90;;
22415;SDS011;12204;50.600;4.608;2023-05-19T08:19:51;8.70;;;2.10;;
22415;SDS011;12204;50.600;4.608;2023-05-19T08:24:56;8.38;;;2.20;;
22415;SDS011;12204;50.600;4.608;2023-05-19T08:30:00;8.27;;;2.13;;
22415;SDS011;12204;50.600;4.608;2023-05-19T08:35:03;11.27;;;2.05;;
22415;SDS011;12204;50.600;4.608;2023-05-19T08:40:13;20.00;;;2.30;;
22415;SDS011;12204;50.600;4.608;2023-05-19T08:45:19;14.63;;;1.90;;
22415;SDS011;12204;50.600;4.608;2023-05-19T08:50:23;9.95;;;2.05;;
22415;SDS011;12204;50.600;4.608;2023-05-19T08:55:35;11.48;;;2.10;;
22415;SDS011;12204;50.600;4.608;2023-05-19T09:00:48;7.90;;;2.28;;
22415;SDS011;12204;50.600;4.608;2023-05-19T09:05:52;13.63;;;2.28;;
22415;SDS011;12204;50.600;4.608;2023-05-19T09:10:57;8.60;;;2.33;;
22415;SDS011;12204;50.600;4.608;2023-05-19T09:16:01;8.02;;;2.17;;
22415;SDS011;12204;50.600;4.608;2023-05-19T09:21:05;9.30;;;2.20;;
22415;SDS011;12204;50.600;4.608;2023-05-19T09:26:13;12.65;;;2.30;;
22415;SDS011;12204;50.600;4.608;2023-05-19T09:31:18;8.75;;;1.98;;
22415;SDS011;12204;50.600;4.608;2023-05-19T09:36:22;9.60;;;2.13;;
22415;SDS011;12204;50.600;4.608;2023-05-19T09:41:27;8.98;;;2.30;;
22415;SDS011;12204;50.600;4.608;2023-05-19T09:46:31;9.85;;;2.20;;
22415;SDS011;12204;50.600;4.608;2023-05-19T09:51:36;8.85;;;2.15;;
22415;SDS011;12204;50.600;4.608;2023-05-19T09:56:41;9.20;;;2.15;;
22415;SDS011;12204;50.600;4.608;2023-05-19T10:01:44;9.05;;;2.03;;
22415;SDS011;12204;50.600;4.608;2023-05-19T10:06:49;9.68;;;2.10;;
22415;SDS011;12204;50.600;4.608;2023-05-19T10:11:56;12.20;;;1.95;;
22415;SDS011;12204;50.600;4.608;2023-05-19T10:17:01;6.95;;;2.00;;
22415;SDS011;12204;50.600;4.608;2023-05-19T10:22:04;7.95;;;2.00;;
22415;SDS011;12204;50.600;4.608;2023-05-19T10:27:12;8.82;;;2.20;;
22415;SDS011;12204;50.600;4.608;2023-05-19T10:32:18;7.28;;;1.88;;
22415;SDS011;12204;50.600;4.608;2023-05-19T10:37:28;6.40;;;1.77;;
22415;SDS011;12204;50.600;4.608;2023-05-19T10:42:49;8.60;;;2.10;;
22415;SDS011;12204;50.600;4.608;2023-05-19T10:48:09;9.10;;;1.90;;
22415;SDS011;12204;50.600;4.608;2023-05-19T10:53:13;10.63;;;2.15;;
22415;SDS011;12204;50.600;4.608;2023-05-19T11:03:52;12.43;;;2.10;;
22415;SDS011;12204;50.600;4.608;2023-05-19T11:08:58;6.35;;;2.00;;
22415;SDS011;12204;50.600;4.608;2023-05-19T11:14:13;10.27;;;1.83;;
22415;SDS011;12204;50.600;4.608;2023-05-19T11:19:19;10.48;;;1.95;;
22415;SDS011;12204;50.600;4.608;2023-05-19T11:24:32;8.25;;;2.00;;
22415;SDS011;12204;50.600;4.608;2023-05-19T11:29:38;9.65;;;1.98;;
22415;SDS011;12204;50.600;4.608;2023-05-19T11:34:43;8.75;;;2.15;;
22415;SDS011;12204;50.600;4.608;2023-05-19T11:39:47;11.00;;;3.80;;
22415;SDS011;12204;50.600;4.608;2023-05-19T11:44:54;21.77;;;9.82;;
22415;SDS011;12204;50.600;4.608;2023-05-19T11:49:58;34.97;;;19.03;;
22415;SDS011;12204;50.600;4.608;2023-05-19T11:55:02;32.90;;;20.48;;
22415;SDS011;12204;50.600;4.608;2023-05-19T12:00:10;35.55;;;18.75;;
22415;SDS011;12204;50.600;4.608;2023-05-19T12:05:19;32.63;;;17.30;;
22415;SDS011;12204;50.600;4.608;2023-05-19T12:10:25;29.35;;;15.18;;
22415;SDS011;12204;50.600;4.608;2023-05-19T12:15:33;22.80;;;11.98;;
22415;SDS011;12204;50.600;4.608;2023-05-19T12:20:36;21.55;;;10.45;;
22415;SDS011;12204;50.600;4.608;2023-05-19T12:25:40;15.15;;;8.40;;
22415;SDS011;12204;50.600;4.608;2023-05-19T12:30:47;14.20;;;6.47;;
22415;SDS011;12204;50.600;4.608;2023-05-19T12:35:55;14.73;;;5.40;;
22415;SDS011;12204;50.600;4.608;2023-05-19T12:40:58;13.30;;;4.07;;
22415;SDS011;12204;50.600;4.608;2023-05-19T12:46:09;10.75;;;3.90;;
22415;SDS011;12204;50.600;4.608;2023-05-19T12:51:17;9.00;;;3.30;;
22415;SDS011;12204;50.600;4.608;2023-05-19T12:56:24;11.48;;;2.97;;
22415;SDS011;12204;50.600;4.608;2023-05-19T13:01:29;8.95;;;2.72;;
22415;SDS011;12204;50.600;4.608;2023-05-19T13:06:33;10.85;;;2.80;;
22415;SDS011;12204;50.600;4.608;2023-05-19T13:11:36;9.25;;;2.50;;
22415;SDS011;12204;50.600;4.608;2023-05-19T13:16:42;7.05;;;2.13;;
22415;SDS011;12204;50.600;4.608;2023-05-19T13:21:46;9.93;;;2.28;;
22415;SDS011;12204;50.600;4.608;2023-05-19T13:26:52;7.05;;;1.83;;
22415;SDS011;12204;50.600;4.608;2023-05-19T13:31:59;8.05;;;2.22;;
22415;SDS011;12204;50.600;4.608;2023-05-19T13:37:03;6.32;;;1.90;;
22415;SDS011;12204;50.600;4.608;2023-05-19T13:42:10;7.00;;;1.88;;
22415;SDS011;12204;50.600;4.608;2023-05-19T13:47:15;6.45;;;1.75;;
22415;SDS011;12204;50.600;4.608;2023-05-19T13:52:19;7.15;;;1.65;;
22415;SDS011;12204;50.600;4.608;2023-05-19T13:57:23;8.80;;;1.67;;
22415;SDS011;12204;50.600;4.608;2023-05-19T14:02:39;6.85;;;1.60;;
22415;SDS011;12204;50.600;4.608;2023-05-19T14:26:06;5.95;;;1.55;;
22415;SDS011;12204;50.600;4.608;2023-05-19T14:32:07;7.65;;;1.50;;
22415;SDS011;12204;50.600;4.608;2023-05-19T14:37:52;5.28;;;1.48;;
22415;SDS011;12204;50.600;4.608;2023-05-19T14:42:57;6.03;;;1.60;;
22415;SDS011;12204;50.600;4.608;2023-05-19T14:48:00;7.10;;;1.80;;
22415;SDS011;12204;50.600;4.608;2023-05-19T14:53:04;7.63;;;1.65;;
22415;SDS011;12204;50.600;4.608;2023-05-19T14:58:09;4.60;;;1.20;;
22415;SDS011;12204;50.600;4.608;2023-05-19T15:03:28;5.47;;;1.38;;
22415;SDS011;12204;50.600;4.608;2023-05-19T15:08:31;3.38;;;1.20;;
22415;SDS011;12204;50.600;4.608;2023-05-19T15:13:36;6.40;;;1.40;;
22415;SDS011;12204;50.600;4.608;2023-05-19T15:18:40;7.30;;;1.45;;
22415;SDS011;12204;50.600;4.608;2023-05-19T15:23:43;5.65;;;1.50;;
22415;SDS011;12204;50.600;4.608;2023-05-19T15:28:48;5.95;;;1.40;;
22415;SDS011;12204;50.600;4.608;2023-05-19T15:33:53;6.35;;;1.38;;
22415;SDS011;12204;50.600;4.608;2023-05-19T15:38:57;5.90;;;1.35;;
22415;SDS011;12204;50.600;4.608;2023-05-19T15:44:02;6.75;;;1.75;;
22415;SDS011;12204;50.600;4.608;2023-05-19T15:49:07;8.25;;;1.90;;
22415;SDS011;12204;50.600;4.608;2023-05-19T15:54:13;9.23;;;2.30;;
22415;SDS011;12204;50.600;4.608;2023-05-19T15:59:18;8.10;;;2.00;;
22415;SDS011;12204;50.600;4.608;2023-05-19T16:04:21;10.02;;;2.08;;
22415;SDS011;12204;50.600;4.608;2023-05-19T16:09:25;10.02;;;3.03;;
22415;SDS011;12204;50.600;4.608;2023-05-19T16:14:30;13.32;;;6.05;;
22415;SDS011;12204;50.600;4.608;2023-05-19T16:19:36;12.38;;;4.85;;
22415;SDS011;12204;50.600;4.608;2023-05-19T16:24:40;12.45;;;4.97;;
22415;SDS011;12204;50.600;4.608;2023-05-19T16:29:45;14.30;;;4.13;;
22415;SDS011;12204;50.600;4.608;2023-05-19T16:34:49;18.00;;;3.50;;
22415;SDS011;12204;50.600;4.608;2023-05-19T16:39:52;13.18;;;3.30;;
22415;SDS011;12204;50.600;4.608;2023-05-19T16:50:18;13.48;;;3.03;;
22415;SDS011;12204;50.600;4.608;2023-05-19T16:55:23;7.57;;;2.70;;
22415;SDS011;12204;50.600;4.608;2023-05-19T17:00:28;7.88;;;2.47;;
22415;SDS011;12204;50.600;4.608;2023-05-19T17:05:33;9.05;;;2.40;;
22415;SDS011;12204;50.600;4.608;2023-05-19T17:10:38;7.07;;;2.03;;
22415;SDS011;12204;50.600;4.608;2023-05-19T17:15:59;6.22;;;2.40;;
22415;SDS011;12204;50.600;4.608;2023-05-19T17:21:03;9.10;;;2.35;;
22415;SDS011;12204;50.600;4.608;2023-05-19T17:26:08;7.57;;;2.10;;
22415;SDS011;12204;50.600;4.608;2023-05-19T17:31:13;7.22;;;2.03;;
22415;SDS011;12204;50.600;4.608;2023-05-19T17:36:17;7.22;;;1.88;;
22415;SDS011;12204;50.600;4.608;2023-05-19T17:41:20;6.57;;;1.70;;
22415;SDS011;12204;50.600;4.608;2023-05-19T17:46:25;6.18;;;1.70;;
22415;SDS011;12204;50.600;4.608;2023-05-19T17:51:30;6.22;;;1.80;;
22415;SDS011;12204;50.600;4.608;2023-05-19T17:56:35;6.18;;;1.60;;
22415;SDS011;12204;50.600;4.608;2023-05-19T18:01:45;6.28;;;1.52;;
22415;SDS011;12204;50.600;4.608;2023-05-19T18:06:49;4.78;;;1.60;;
22415;SDS011;12204;50.600;4.608;2023-05-19T18:11:54;6.28;;;1.40;;
22415;SDS011;12204;50.600;4.608;2023-05-19T18:17:03;5.40;;;1.70;;
22415;SDS011;12204;50.600;4.608;2023-05-19T18:22:10;6.97;;;1.50;;
22415;SDS011;12204;50.600;4.608;2023-05-19T18:27:15;6.35;;;1.60;;
22415;SDS011;12204;50.600;4.608;2023-05-19T18:32:19;12.77;;;1.63;;
22415;SDS011;12204;50.600;4.608;2023-05-19T18:37:23;15.00;;;1.58;;
22415;SDS011;12204;50.600;4.608;2023-05-19T18:42:26;7.05;;;1.90;;
22415;SDS011;12204;50.600;4.608;2023-05-19T18:47:31;7.55;;;1.40;;
22415;SDS011;12204;50.600;4.608;2023-05-19T18:52:35;9.50;;;1.60;;
22415;SDS011;12204;50.600;4.608;2023-05-19T18:57:38;8.02;;;1.55;;
22415;SDS011;12204;50.600;4.608;2023-05-19T19:02:43;7.22;;;1.77;;
22415;SDS011;12204;50.600;4.608;2023-05-19T19:07:47;5.43;;;1.63;;
22415;SDS011;12204;50.600;4.608;2023-05-19T19:12:50;4.88;;;1.60;;
22415;SDS011;12204;50.600;4.608;2023-05-19T19:17:55;5.28;;;1.48;;
22415;SDS011;12204;50.600;4.608;2023-05-19T19:22:59;7.25;;;1.60;;
22415;SDS011;12204;50.600;4.608;2023-05-19T19:28:05;5.30;;;1.50;;
22415;SDS011;12204;50.600;4.608;2023-05-19T19:33:10;5.13;;;1.60;;
22415;SDS011;12204;50.600;4.608;2023-05-19T19:38:13;6.68;;;1.58;;
22415;SDS011;12204;50.600;4.608;2023-05-19T19:43:17;4.38;;;1.52;;
22415;SDS011;12204;50.600;4.608;2023-05-19T19:48:22;4.90;;;1.30;;
22415;SDS011;12204;50.600;4.608;2023-05-19T19:53:25;3.65;;;1.17;;
22415;SDS011;12204;50.600;4.608;2023-05-19T19:58:29;4.07;;;1.33;;
22415;SDS011;12204;50.600;4.608;2023-05-19T20:03:34;4.38;;;1.38;;
22415;SDS011;12204;50.600;4.608;2023-05-19T20:08:38;4.93;;;1.08;;
22415;SDS011;12204;50.600;4.608;2023-05-19T20:13:42;4.50;;;1.40;;
22415;SDS011;12204;50.600;4.608;2023-05-19T20:18:46;3.85;;;1.30;;
22415;SDS011;12204;50.600;4.608;2023-05-19T20:23:50;2.90;;;1.00;;
22415;SDS011;12204;50.600;4.608;2023-05-19T20:28:54;5.15;;;1.10;;
22415;SDS011;12204;50.600;4.608;2023-05-19T20:33:59;3.67;;;1.20;;
22415;SDS011;12204;50.600;4.608;2023-05-19T20:39:02;7.45;;;1.10;;
22415;SDS011;12204;50.600;4.608;2023-05-19T20:44:07;3.38;;;1.10;;
22415;SDS011;12204;50.600;4.608;2023-05-19T20:49:13;4.40;;;1.10;;
22415;SDS011;12204;50.600;4.608;2023-05-19T20:54:16;3.58;;;1.00;;
22415;SDS011;12204;50.600;4.608;2023-05-19T20:59:21;4.38;;;1.20;;
22415;SDS011;12204;50.600;4.608;2023-05-19T21:04:25;2.75;;;0.90;;
22415;SDS011;12204;50.600;4.608;2023-05-19T21:09:29;3.50;;;1.08;;
22415;SDS011;12204;50.600;4.608;2023-05-19T21:14:32;3.45;;;1.10;;
22415;SDS011;12204;50.600;4.608;2023-05-19T21:19:37;3.85;;;1.00;;
22415;SDS011;12204;50.600;4.608;2023-05-19T21:24:41;4.20;;;1.25;;
22415;SDS011;12204;50.600;4.608;2023-05-19T21:29:44;2.80;;;1.00;;
22415;SDS011;12204;50.600;4.608;2023-05-19T21:34:49;4.18;;;1.10;;
22415;SDS011;12204;50.600;4.608;2023-05-19T21:39:52;3.38;;;1.00;;
22415;SDS011;12204;50.600;4.608;2023-05-19T21:44:56;3.70;;;1.00;;
22415;SDS011;12204;50.600;4.608;2023-05-19T21:50:01;3.13;;;1.10;;
22415;SDS011;12204;50.600;4.608;2023-05-19T21:55:05;3.83;;;1.00;;
22415;SDS011;12204;50.600;4.608;2023-05-19T22:00:11;3.80;;;1.10;;
22415;SDS011;12204;50.600;4.608;2023-05-19T22:05:17;4.78;;;1.10;;
22415;SDS011;12204;50.600;4.608;2023-05-19T22:10:21;4.97;;;1.10;;
22415;SDS011;12204;50.600;4.608;2023-05-19T22:15:35;3.13;;;1.10;;
22415;SDS011;12204;50.600;4.608;2023-05-19T22:20:41;2.95;;;1.00;;
22415;SDS011;12204;50.600;4.608;2023-05-19T22:25:44;4.65;;;1.10;;
22415;SDS011;12204;50.600;4.608;2023-05-19T22:30:48;6.88;;;1.00;;
22415;SDS011;12204;50.600;4.608;2023-05-19T22:35:53;7.15;;;1.15;;
22415;SDS011;12204;50.600;4.608;2023-05-19T22:40:56;2.90;;;0.90;;
22415;SDS011;12204;50.600;4.608;2023-05-19T22:46:00;5.13;;;1.20;;
22415;SDS011;12204;50.600;4.608;2023-05-19T22:51:04;3.92;;;0.90;;
22415;SDS011;12204;50.600;4.608;2023-05-19T22:56:08;3.05;;;1.00;;
22415;SDS011;12204;50.600;4.608;2023-05-19T23:01:11;4.03;;;0.98;;
22415;SDS011;12204;50.600;4.608;2023-05-19T23:06:16;3.20;;;0.80;;
22415;SDS011;12204;50.600;4.608;2023-05-19T23:11:20;3.40;;;0.93;;
22415;SDS011;12204;50.600;4.608;2023-05-19T23:16:23;3.67;;;0.80;;
22415;SDS011;12204;50.600;4.608;2023-05-19T23:21:28;4.28;;;0.85;;
22415;SDS011;12204;50.600;4.608;2023-05-19T23:26:32;3.20;;;0.98;;
22415;SDS011;12204;50.600;4.608;2023-05-19T23:31:36;2.85;;;0.85;;
22415;SDS011;12204;50.600;4.608;2023-05-19T23:36:41;1.83;;;0.70;;
22415;SDS011;12204;50.600;4.608;2023-05-19T23:41:44;1.50;;;0.70;;
22415;SDS011;12204;50.600;4.608;2023-05-19T23:46:48;3.15;;;0.90;;
22415;SDS011;12204;50.600;4.608;2023-05-19T23:51:53;3.60;;;0.77;;
22415;SDS011;12204;50.600;4.608;2023-05-19T23:56:56;2.20;;;0.60;;
